Time;durP1;ratioP1;P1;durP2;ratioP2;P2;SDS_P1;SDS_P2;PMS_P1;PMS_P2;Temp;Humidity;BMP_temperature;BMP_pressure;BME280_temperature;BME280_humidity;BME280_pressure;Samples;Min_cycle;Max_cycle;Signal;HPM_P1;HPM_P2
2022/06/26 00:00:47;;;;;;;2.40;2.20;;;21.70;99.90;;;;;;4957642;28;20267;-74
2022/06/26 00:03:13;;;;;;;1.87;1.50;;;21.60;99.90;;;;;;4958448;28;20613;-74
2022/06/26 00:05:38;;;;;;;2.23;2.00;;;21.50;99.90;;;;;;4975867;28;20168;-73
2022/06/26 00:08:06;;;;;;;1.83;1.67;;;21.50;99.90;;;;;;4958519;28;20599;-74
2022/06/26 00:10:32;;;;;;;2.17;1.80;;;21.40;99.90;;;;;;4974819;28;20571;-74
2022/06/26 00:12:58;;;;;;;3.83;2.10;;;21.40;99.90;;;;;;4975634;28;20554;-74
2022/06/26 00:15:24;;;;;;;2.70;2.23;;;21.30;99.90;;;;;;4975265;28;20196;-73
2022/06/26 00:17:50;;;;;;;3.83;2.70;;;21.20;99.90;;;;;;4975412;28;20578;-73
2022/06/26 00:20:16;;;;;;;2.33;1.97;;;21.20;99.90;;;;;;4957764;28;20164;-73
2022/06/26 00:22:41;;;;;;;2.93;2.03;;;21.10;99.90;;;;;;4974926;28;20575;-73
2022/06/26 00:25:08;;;;;;;2.63;1.67;;;21.10;99.90;;;;;;4942021;28;20582;-73
2022/06/26 00:27:34;;;;;;;2.00;1.80;;;21.10;99.90;;;;;;4957897;28;20541;-73
2022/06/26 00:30:01;;;;;;;3.10;2.40;;;21.00;99.90;;;;;;4957514;28;20583;-73
2022/06/26 00:32:26;;;;;;;2.47;2.27;;;21.00;99.90;;;;;;4974735;28;20563;-73
2022/06/26 00:34:54;;;;;;;2.30;2.10;;;21.00;99.90;;;;;;4958408;28;20571;-77
2022/06/26 00:37:20;;;;;;;2.80;2.20;;;20.90;99.90;;;;;;4975301;28;20611;-78
2022/06/26 00:39:46;;;;;;;2.43;2.23;;;20.90;99.90;;;;;;4957380;28;20196;-77
2022/06/26 00:42:12;;;;;;;3.07;2.47;;;20.80;99.90;;;;;;4957351;28;20458;-77
2022/06/26 00:44:38;;;;;;;2.63;2.33;;;20.80;99.90;;;;;;4957599;28;20575;-78
2022/06/26 00:47:04;;;;;;;3.00;2.70;;;20.70;99.90;;;;;;4941916;28;20583;-77
2022/06/26 00:49:30;;;;;;;2.73;1.97;;;20.70;99.90;;;;;;4959800;28;20271;-77
2022/06/26 00:51:56;;;;;;;2.67;2.40;;;20.70;99.90;;;;;;4975247;28;20176;-77
2022/06/26 00:54:26;;;;;;;3.20;2.90;;;20.60;99.90;;;;;;4957666;28;20579;-77
2022/06/26 00:56:55;;;;;;;3.67;3.03;;;20.60;99.90;;;;;;4957599;28;20715;-78
2022/06/26 00:59:26;;;;;;;4.43;3.10;;;20.60;99.90;;;;;;4957324;28;20611;-77
2022/06/26 01:01:53;;;;;;;3.57;3.10;;;20.50;99.90;;;;;;4974143;28;20578;-77
2022/06/26 01:04:19;;;;;;;4.00;3.60;;;20.50;99.90;;;;;;4974695;28;20655;-77
2022/06/26 01:06:47;;;;;;;3.20;3.00;;;20.50;99.90;;;;;;4974865;28;20614;-78
2022/06/26 01:09:13;;;;;;;4.27;2.70;;;20.50;99.90;;;;;;4956968;28;20618;-77
2022/06/26 01:11:39;;;;;;;3.40;2.60;;;20.50;99.90;;;;;;4956342;28;21115;-77
2022/06/26 01:14:05;;;;;;;3.67;3.00;;;20.50;99.90;;;;;;4957287;28;20176;-77
2022/06/26 01:16:31;;;;;;;3.70;3.40;;;20.50;99.90;;;;;;4957607;28;20995;-78
2022/06/26 01:18:58;;;;;;;3.30;2.97;;;20.50;99.90;;;;;;4958713;28;20611;-78
2022/06/26 01:21:25;;;;;;;2.90;2.63;;;20.40;99.90;;;;;;4957422;28;20575;-78
2022/06/26 01:23:52;;;;;;;4.53;3.50;;;20.40;99.90;;;;;;4956795;28;21157;-78
2022/06/26 01:26:20;;;;;;;4.00;3.60;;;20.40;99.90;;;;;;4959901;28;21141;-78
2022/06/26 01:28:46;;;;;;;4.63;3.77;;;20.40;99.90;;;;;;4956509;28;20626;-78
2022/06/26 01:31:12;;;;;;;4.27;3.23;;;20.40;99.90;;;;;;4940110;28;20579;-78
2022/06/26 01:33:38;;;;;;;2.93;2.70;;;20.40;99.90;;;;;;4956962;28;20715;-78
2022/06/26 01:36:06;;;;;;;2.73;2.53;;;20.30;99.90;;;;;;4940826;28;20619;-77
2022/06/26 01:38:33;;;;;;;4.10;3.70;;;20.30;99.90;;;;;;4956588;28;20615;-77
2022/06/26 01:40:59;;;;;;;3.20;2.90;;;20.30;99.90;;;;;;4939899;28;21353;-77
2022/06/26 01:43:29;;;;;;;4.57;4.10;;;20.30;99.90;;;;;;4957063;28;20172;-77
2022/06/26 01:45:57;;;;;;;3.30;3.00;;;20.30;99.90;;;;;;4957122;28;20642;-77
2022/06/26 01:48:30;;;;;;;4.13;3.13;;;20.30;99.90;;;;;;4956780;28;20619;-77
2022/06/26 01:50:59;;;;;;;3.80;2.80;;;20.40;99.90;;;;;;4956018;28;20673;-78
2022/06/26 01:53:26;;;;;;;6.17;3.70;;;20.40;99.90;;;;;;4956334;28;20575;-78
2022/06/26 01:55:52;;;;;;;4.23;3.77;;;20.40;99.90;;;;;;4956797;28;20638;-77
2022/06/26 01:58:24;;;;;;;4.00;3.60;;;20.50;99.90;;;;;;4956487;28;20694;-77
2022/06/26 02:00:51;;;;;;;5.43;4.47;;;20.50;99.90;;;;;;4955674;28;20570;-77
2022/06/26 02:03:18;;;;;;;5.60;4.30;;;20.60;99.90;;;;;;4958492;28;20610;-77
2022/06/26 02:05:45;;;;;;;3.73;3.40;;;20.60;99.90;;;;;;4956096;28;20940;-77
2022/06/26 02:08:13;;;;;;;5.03;4.27;;;20.70;99.90;;;;;;4939941;28;20618;-77
2022/06/26 02:13:39;;;;;;;4.73;3.97;;;20.70;99.90;;;;;;4940030;28;20686;-78
2022/06/26 02:16:24;;;;;;;5.20;4.70;;;20.70;99.90;;;;;;4940253;28;21118;-78
2022/06/26 02:18:55;;;;;;;3.80;3.50;;;20.70;99.90;;;;;;4956458;28;20701;-78
2022/06/26 02:21:25;;;;;;;5.10;4.70;;;20.60;99.90;;;;;;4955282;28;20567;-77
2022/06/26 02:23:52;;;;;;;5.10;4.40;;;20.60;99.90;;;;;;4955860;28;20563;-77
2022/06/26 02:26:19;;;;;;;4.33;3.93;;;20.60;99.90;;;;;;4956005;28;20617;-77
2022/06/26 02:28:46;;;;;;;4.80;3.97;;;20.60;99.90;;;;;;4955840;28;20630;-77
2022/06/26 02:31:12;;;;;;;6.10;4.20;;;20.50;99.90;;;;;;4939238;28;20563;-77
2022/06/26 02:33:38;;;;;;;5.60;4.80;;;20.50;99.90;;;;;;4940097;28;20575;-77
2022/06/26 02:36:06;;;;;;;5.77;5.17;;;20.50;99.90;;;;;;4955632;28;20654;-77
2022/06/26 02:38:33;;;;;;;6.13;4.73;;;20.50;99.90;;;;;;4973107;28;20195;-77
2022/06/26 02:41:00;;;;;;;5.87;5.37;;;20.50;99.90;;;;;;4959947;28;20582;-77
2022/06/26 02:43:27;;;;;;;4.90;4.40;;;20.50;99.90;;;;;;4939861;28;20571;-77
2022/06/26 02:45:54;;;;;;;5.40;4.90;;;20.50;99.90;;;;;;4955801;28;21139;-77
2022/06/26 02:48:22;;;;;;;6.13;5.50;;;20.50;99.90;;;;;;4955888;28;20602;-77
2022/06/26 02:50:48;;;;;;;5.77;5.17;;;20.50;99.90;;;;;;4954822;28;20937;-77
2022/06/26 02:53:15;;;;;;;5.70;5.20;;;20.50;99.90;;;;;;4955914;28;20937;-77
2022/06/26 02:55:42;;;;;;;5.70;5.17;;;20.50;99.90;;;;;;4956302;28;20713;-77
2022/06/26 02:58:10;;;;;;;5.67;5.10;;;20.40;99.90;;;;;;4956247;28;21174;-77
2022/06/26 03:00:42;;;;;;;6.70;6.10;;;20.40;99.90;;;;;;4939163;28;20602;-77
2022/06/26 03:03:07;;;;;;;6.00;5.50;;;20.40;99.90;;;;;;4972345;28;20591;-77
2022/06/26 03:05:34;;;;;;;6.40;5.80;;;20.40;99.90;;;;;;4938890;28;20198;-77
2022/06/26 03:08:00;;;;;;;6.70;5.67;;;20.30;99.90;;;;;;4972848;28;20605;-77
2022/06/26 03:10:27;;;;;;;8.07;7.37;;;20.30;99.90;;;;;;4954757;28;20583;-77
2022/06/26 03:12:53;;;;;;;9.13;8.33;;;20.30;99.90;;;;;;4955634;28;20580;-77
2022/06/26 03:15:19;;;;;;;9.43;8.60;;;20.30;99.90;;;;;;4955606;28;20629;-77
2022/06/26 03:17:45;;;;;;;10.10;9.00;;;20.20;99.90;;;;;;4958672;28;20946;-77
2022/06/26 03:20:18;;;;;;;8.70;7.50;;;20.20;99.90;;;;;;4939026;28;20947;-77
2022/06/26 03:22:44;;;;;;;9.53;7.50;;;20.20;99.90;;;;;;4939224;28;20586;-77
2022/06/26 03:25:11;;;;;;;7.90;7.10;;;20.20;99.90;;;;;;4955453;28;20687;-77
2022/06/26 03:27:38;;;;;;;7.40;6.50;;;20.20;99.90;;;;;;4939718;28;20955;-77
2022/06/26 03:30:07;;;;;;;8.00;6.07;;;20.30;99.90;;;;;;4955028;28;20579;-77
2022/06/26 03:32:33;;;;;;;4.80;4.40;;;20.20;99.90;;;;;;4938914;28;20579;-77
2022/06/26 03:35:05;;;;;;;4.33;3.53;;;20.20;99.90;;;;;;4955081;28;20563;-77
2022/06/26 03:37:32;;;;;;;3.90;3.60;;;20.30;99.90;;;;;;4955304;28;20928;-77
2022/06/26 03:39:59;;;;;;;3.73;2.93;;;20.30;99.90;;;;;;4938826;28;20583;-77
2022/06/26 03:42:25;;;;;;;3.30;2.10;;;20.30;99.90;;;;;;4938585;28;20657;-77
2022/06/26 03:44:51;;;;;;;2.70;2.23;;;20.20;99.90;;;;;;4955094;28;20683;-77
2022/06/26 03:47:17;;;;;;;2.93;2.00;;;20.20;99.90;;;;;;4972516;28;20633;-77
2022/06/26 03:49:52;;;;;;;2.83;1.40;;;20.20;99.90;;;;;;4954459;28;20611;-77
2022/06/26 03:52:23;;;;;;;2.10;1.60;;;20.20;99.90;;;;;;4945105;28;20587;-77
2022/06/26 03:54:52;;;;;;;2.53;1.30;;;20.20;99.90;;;;;;4959471;28;20604;-78
2022/06/26 03:57:24;;;;;;;2.87;1.80;;;20.20;99.90;;;;;;4958887;28;20614;-78
2022/06/26 03:59:52;;;;;;;2.80;1.50;;;20.20;99.90;;;;;;4958192;28;20665;-77
2022/06/26 04:02:26;;;;;;;2.20;1.87;;;20.10;99.90;;;;;;4958299;28;20657;-77
2022/06/26 04:04:52;;;;;;;2.77;2.57;;;20.10;99.90;;;;;;4958039;28;20662;-77
2022/06/26 04:07:20;;;;;;;4.20;1.70;;;20.10;99.90;;;;;;4942528;28;20731;-77
2022/06/26 04:09:49;;;;;;;2.40;1.80;;;20.10;99.90;;;;;;4957851;28;20196;-77
2022/06/26 04:12:19;;;;;;;2.33;1.80;;;20.10;99.90;;;;;;4941179;28;20591;-77
2022/06/26 04:14:46;;;;;;;1.97;1.60;;;20.10;99.90;;;;;;4975604;28;20578;-77
2022/06/26 04:17:13;;;;;;;3.00;1.70;;;20.20;99.90;;;;;;4958272;28;20207;-77
2022/06/26 04:19:49;;;;;;;2.80;1.20;;;20.20;99.90;;;;;;4942917;28;20725;-76
2022/06/26 04:22:15;;;;;;;2.37;1.10;;;20.20;99.90;;;;;;4958139;28;20567;-76
2022/06/26 04:24:40;;;;;;;3.20;1.70;;;20.20;99.90;;;;;;4958037;28;20556;-77
2022/06/26 04:27:06;;;;;;;2.03;1.37;;;20.20;99.90;;;;;;4975232;28;20697;-77
2022/06/26 04:29:32;;;;;;;2.30;1.30;;;20.20;99.90;;;;;;4961484;28;20195;-77
2022/06/26 04:31:58;;;;;;;1.90;1.20;;;20.20;99.90;;;;;;4940939;28;20585;-77
2022/06/26 04:34:25;;;;;;;1.63;1.43;;;20.20;99.90;;;;;;4957824;28;20178;-77
2022/06/26 04:36:52;;;;;;;4.60;1.43;;;20.30;99.90;;;;;;4957996;28;20975;-77
2022/06/26 04:39:20;;;;;;;2.83;1.57;;;20.30;99.90;;;;;;4957889;28;21078;-77
2022/06/26 04:41:49;;;;;;;2.90;1.00;;;20.40;99.90;;;;;;4957208;28;20915;-77
2022/06/26 04:44:14;;;;;;;4.03;1.50;;;20.50;99.90;;;;;;4957961;28;20686;-77
2022/06/26 04:46:42;;;;;;;2.13;1.17;;;20.50;99.90;;;;;;4957699;28;20979;-77
2022/06/26 04:49:08;;;;;;;2.50;1.30;;;20.60;99.90;;;;;;4957716;28;21017;-77
2022/06/26 04:51:35;;;;;;;2.93;1.20;;;20.70;99.90;;;;;;4974297;28;20950;-77
2022/06/26 04:54:05;;;;;;;6.57;1.50;;;20.80;99.90;;;;;;4942244;28;20622;-77
2022/06/26 04:56:36;;;;;;;3.93;1.70;;;20.90;99.90;;;;;;4957642;28;20658;-78
2022/06/26 04:59:03;;;;;;;2.40;1.10;;;21.00;99.90;;;;;;4957398;28;20631;-77
2022/06/26 05:01:29;;;;;;;2.20;1.23;;;21.10;99.90;;;;;;4956806;28;20580;-77
2022/06/26 05:04:27;;;;;;;2.23;1.10;;;21.20;99.90;;;;;;4951940;28;20682;-77
2022/06/26 05:07:32;;;;;;;5.83;1.40;;;21.40;99.90;;;;;;4961581;28;20590;-78
2022/06/26 05:09:58;;;;;;;1.90;1.20;;;21.60;99.90;;;;;;4957119;28;20998;-77
2022/06/26 05:12:25;;;;;;;1.77;1.13;;;21.70;99.90;;;;;;4974024;28;21414;-77
2022/06/26 05:15:20;;;;;;;2.23;1.20;;;21.80;99.90;;;;;;4969734;28;20649;-77
2022/06/26 05:17:46;;;;;;;2.47;1.10;;;22.00;99.90;;;;;;4957565;28;20583;-77
2022/06/26 05:20:16;;;;;;;1.90;1.20;;;22.10;99.90;;;;;;4957558;28;20555;-77
2022/06/26 05:22:41;;;;;;;2.23;1.40;;;22.30;99.90;;;;;;4957522;28;20585;-77
2022/06/26 05:25:08;;;;;;;2.80;1.00;;;22.40;99.90;;;;;;4957876;28;20184;-77
2022/06/26 05:27:38;;;;;;;2.90;0.90;;;22.50;99.90;;;;;;4957124;28;20575;-77
2022/06/26 05:30:04;;;;;;;4.17;1.00;;;22.60;99.90;;;;;;4957426;28;20969;-76
2022/06/26 05:32:36;;;;;;;2.30;1.13;;;22.60;99.90;;;;;;4957690;28;20513;-76
2022/06/26 05:35:07;;;;;;;4.13;1.00;;;22.70;99.90;;;;;;4958198;28;20563;-77
2022/06/26 05:37:33;;;;;;;2.93;0.90;;;22.60;99.90;;;;;;4950380;29;20622;-77
2022/06/26 05:39:59;;;;;;;3.50;0.77;;;22.60;99.90;;;;;;4957075;28;20583;-77
2022/06/26 05:42:25;;;;;;;3.00;0.80;;;22.60;99.90;;;;;;4958369;28;20172;-77
2022/06/26 05:44:51;;;;;;;3.73;1.50;;;22.60;99.90;;;;;;4957827;28;20171;-77
2022/06/26 05:47:18;;;;;;;2.27;0.70;;;22.50;99.90;;;;;;4957502;28;20579;-77
2022/06/26 05:50:03;;;;;;;1.40;0.80;;;22.50;99.90;;;;;;4973679;28;20626;-77
2022/06/26 05:52:55;;;;;;;1.80;0.90;;;22.40;99.90;;;;;;4973315;28;20706;-77
2022/06/26 05:55:36;;;;;;;3.37;1.27;;;22.40;99.90;;;;;;4973879;28;20637;-78
2022/06/26 05:58:22;;;;;;;1.60;0.80;;;22.40;99.90;;;;;;4958921;28;20634;-77
2022/06/26 06:01:17;;;;;;;1.93;0.80;;;22.40;99.90;;;;;;4964086;28;20609;-76
2022/06/26 06:03:45;;;;;;;1.97;0.80;;;22.60;99.90;;;;;;4945614;28;20603;-77
2022/06/26 06:06:11;;;;;;;2.70;0.80;;;22.60;99.90;;;;;;4947909;28;20587;-77
2022/06/26 06:08:38;;;;;;;1.60;0.70;;;22.70;99.90;;;;;;4963516;28;21007;-77
2022/06/26 06:11:03;;;;;;;1.57;0.80;;;22.70;99.90;;;;;;4982048;28;20579;-76
2022/06/26 06:13:30;;;;;;;3.10;1.17;;;22.80;99.90;;;;;;4966030;28;20198;-77
2022/06/26 06:15:56;;;;;;;5.63;1.00;;;23.10;99.90;;;;;;4963404;28;20992;-77
2022/06/26 06:18:22;;;;;;;5.93;0.97;;;23.40;99.90;;;;;;4964999;28;20611;-78
2022/06/26 06:20:50;;;;;;;2.10;0.73;;;23.80;99.90;;;;;;4947447;28;20967;-79
2022/06/26 06:23:16;;;;;;;2.17;0.90;;;24.10;99.90;;;;;;4951550;28;20187;-78
2022/06/26 06:25:42;;;;;;;1.40;0.80;;;24.60;99.90;;;;;;4963302;28;20583;-79
2022/06/26 06:28:08;;;;;;;3.20;0.80;;;25.20;99.90;;;;;;4955643;28;20625;-79
2022/06/26 06:30:39;;;;;;;4.20;1.10;;;26.00;99.90;;;;;;4940872;28;20585;-79
2022/06/26 06:33:06;;;;;;;3.13;0.70;;;27.00;99.90;;;;;;4958867;28;20626;-79
2022/06/26 06:35:36;;;;;;;1.33;0.70;;;28.00;99.90;;;;;;4955812;28;21194;-80
2022/06/26 06:38:03;;;;;;;1.50;0.70;;;29.00;99.90;;;;;;4956590;28;20617;-73
2022/06/26 06:40:30;;;;;;;2.60;0.77;;;29.90;99.90;;;;;;4954601;28;21048;-73
2022/06/26 06:42:59;;;;;;;2.03;0.60;;;30.60;99.90;;;;;;4939174;28;20610;-72
2022/06/26 06:45:26;;;;;;;3.00;0.60;;;31.30;99.90;;;;;;4955615;28;20690;-73
2022/06/26 06:48:01;;;;;;;1.50;0.57;;;32.10;99.90;;;;;;4955565;28;20711;-73
2022/06/26 06:50:32;;;;;;;1.50;0.70;;;32.80;99.90;;;;;;4972279;28;20804;-72
2022/06/26 06:52:58;;;;;;;2.40;1.00;;;33.50;99.90;;;;;;4952681;28;20733;-73
2022/06/26 06:55:24;;;;;;;2.00;0.60;;;34.20;99.90;;;;;;4937653;28;20644;-73
2022/06/26 06:57:52;;;;;;;1.30;0.60;;;34.80;99.90;;;;;;4936209;29;20616;-72
2022/06/26 07:00:18;;;;;;;1.83;0.70;;;35.30;99.00;;;;;;4920315;29;21103;-73
2022/06/26 07:02:44;;;;;;;1.67;0.70;;;35.70;97.40;;;;;;4952540;29;20670;-72
2022/06/26 07:05:10;;;;;;;1.50;0.63;;;36.10;95.40;;;;;;4920509;29;20181;-71
2022/06/26 07:07:36;;;;;;;1.83;0.63;;;36.50;94.50;;;;;;4936347;29;20183;-71
2022/06/26 07:10:03;;;;;;;1.57;0.63;;;36.90;93.00;;;;;;4936508;29;20941;-71
2022/06/26 07:12:29;;;;;;;1.60;0.70;;;37.20;91.20;;;;;;4943043;28;20954;-71
2022/06/26 07:14:55;;;;;;;1.73;0.70;;;37.40;89.20;;;;;;4939662;28;20585;-71
2022/06/26 07:17:22;;;;;;;2.60;0.87;;;37.70;87.40;;;;;;4955599;28;20195;-72
2022/06/26 07:19:53;;;;;;;2.00;0.80;;;38.00;84.30;;;;;;4955513;28;20610;-72
2022/06/26 07:22:19;;;;;;;1.40;0.63;;;38.30;82.10;;;;;;4946714;28;20649;-72
2022/06/26 07:24:45;;;;;;;1.30;0.57;;;38.70;80.30;;;;;;4956037;28;20566;-71
2022/06/26 07:27:25;;;;;;;1.80;0.60;;;39.10;79.00;;;;;;4950398;29;20611;-71
2022/06/26 07:29:51;;;;;;;1.80;0.93;;;39.50;76.20;;;;;;4957536;28;20633;-71
2022/06/26 07:32:17;;;;;;;1.93;0.50;;;39.60;72.30;;;;;;4973188;28;20183;-71
2022/06/26 07:34:43;;;;;;;1.77;0.60;;;39.50;70.00;;;;;;4959188;28;20168;-71
2022/06/26 07:37:09;;;;;;;2.07;0.70;;;39.70;69.70;;;;;;4958871;28;20211;-71
2022/06/26 07:39:34;;;;;;;1.50;0.50;;;39.90;67.00;;;;;;4954782;29;20279;-71
2022/06/26 07:42:01;;;;;;;7.00;0.70;;;39.90;63.90;;;;;;4950314;29;20192;-71
2022/06/26 07:44:31;;;;;;;1.53;0.53;;;39.70;61.50;;;;;;4924500;29;20584;-72
2022/06/26 07:46:57;;;;;;;2.20;0.70;;;39.50;60.20;;;;;;4957201;28;20947;-72
2022/06/26 07:49:41;;;;;;;2.23;0.60;;;39.00;58.80;;;;;;4959237;28;20630;-72
2022/06/26 07:52:07;;;;;;;1.30;0.60;;;38.50;58.80;;;;;;4958302;28;20602;-73
2022/06/26 07:54:33;;;;;;;1.53;0.50;;;38.00;58.50;;;;;;4975802;28;20191;-73
2022/06/26 07:56:58;;;;;;;1.20;0.50;;;37.60;58.70;;;;;;4976008;28;20207;-72
2022/06/26 07:59:24;;;;;;;2.10;0.60;;;37.40;59.00;;;;;;4975191;28;20194;-72
2022/06/26 08:01:50;;;;;;;2.13;0.60;;;37.10;59.20;;;;;;4957530;28;20528;-72
2022/06/26 08:04:16;;;;;;;2.03;0.60;;;36.70;58.40;;;;;;4975181;28;20168;-72
2022/06/26 08:06:42;;;;;;;1.97;0.53;;;36.00;57.70;;;;;;4957845;28;20593;-72
2022/06/26 08:09:08;;;;;;;2.27;0.80;;;35.30;57.60;;;;;;4975107;28;20285;-72
2022/06/26 08:11:34;;;;;;;2.33;0.50;;;34.60;57.80;;;;;;4941456;28;20185;-72
2022/06/26 08:14:00;;;;;;;1.60;0.50;;;33.90;58.20;;;;;;4975314;28;21078;-73
2022/06/26 08:16:26;;;;;;;4.50;0.60;;;33.30;58.50;;;;;;4975515;28;20614;-73
2022/06/26 08:18:52;;;;;;;1.50;0.60;;;32.60;58.80;;;;;;4975489;28;20719;-73
2022/06/26 08:24:02;;;;;;;1.77;0.70;;;31.70;61.70;;;;;;4975720;28;20589;-72
2022/06/26 08:26:28;;;;;;;2.43;0.60;;;32.10;64.90;;;;;;4975454;28;20950;-72
2022/06/26 08:28:54;;;;;;;2.23;0.70;;;32.70;67.10;;;;;;4975113;28;20632;-72
2022/06/26 08:31:19;;;;;;;1.77;0.60;;;33.50;67.50;;;;;;4957684;28;20229;-72
2022/06/26 08:33:45;;;;;;;2.17;0.63;;;34.00;66.10;;;;;;4958246;28;20178;-72
2022/06/26 08:36:11;;;;;;;1.40;0.60;;;34.30;64.20;;;;;;4958078;28;20233;-72
2022/06/26 08:38:39;;;;;;;1.33;0.70;;;34.30;61.70;;;;;;4974288;28;20199;-72
2022/06/26 08:41:08;;;;;;;1.50;0.70;;;34.00;61.00;;;;;;4958007;28;20173;-72
2022/06/26 08:43:38;;;;;;;1.67;0.73;;;33.80;60.60;;;;;;4957648;28;20672;-72
2022/06/26 08:46:05;;;;;;;1.57;0.60;;;33.40;60.00;;;;;;4958004;28;20586;-71
2022/06/26 08:48:41;;;;;;;1.70;0.60;;;33.10;60.40;;;;;;4957846;28;21133;-72
2022/06/26 08:51:08;;;;;;;2.33;0.60;;;32.70;59.80;;;;;;4957451;28;20644;-72
2022/06/26 08:53:34;;;;;;;2.07;0.60;;;32.20;60.00;;;;;;4975432;28;20579;-72
2022/06/26 08:56:01;;;;;;;1.70;0.60;;;31.90;60.60;;;;;;4975336;28;20721;-72
2022/06/26 08:58:27;;;;;;;1.60;0.70;;;32.00;62.40;;;;;;4957489;28;20730;-72
2022/06/26 09:00:53;;;;;;;2.23;0.80;;;32.00;63.30;;;;;;4974337;28;20628;-72
2022/06/26 09:03:19;;;;;;;1.70;0.50;;;32.10;63.20;;;;;;4974825;28;20686;-72
2022/06/26 09:05:45;;;;;;;1.40;0.60;;;32.10;62.30;;;;;;4957483;28;20180;-72
2022/06/26 09:08:25;;;;;;;1.57;0.60;;;32.00;62.70;;;;;;4974734;28;20675;-73
2022/06/26 09:10:57;;;;;;;1.60;0.60;;;31.80;61.70;;;;;;4957814;28;20172;-72
2022/06/26 09:13:23;;;;;;;4.70;0.70;;;31.50;61.10;;;;;;4956948;28;20575;-71
2022/06/26 09:15:50;;;;;;;1.60;0.60;;;31.20;60.70;;;;;;4974443;28;21124;-71
2022/06/26 09:18:16;;;;;;;1.40;0.57;;;30.90;61.50;;;;;;4974549;28;20187;-71
2022/06/26 09:20:55;;;;;;;1.50;0.60;;;30.60;62.00;;;;;;4956816;28;20642;-71
2022/06/26 09:23:22;;;;;;;2.53;0.60;;;30.30;62.40;;;;;;4974893;28;20985;-71
2022/06/26 09:25:48;;;;;;;1.60;0.60;;;30.30;63.50;;;;;;4974521;28;20581;-71
2022/06/26 09:28:19;;;;;;;2.30;0.70;;;30.20;63.70;;;;;;4956639;28;20961;-71
2022/06/26 09:30:53;;;;;;;1.73;0.60;;;30.00;63.60;;;;;;4974021;28;20270;-72
2022/06/26 09:33:30;;;;;;;2.00;0.90;;;29.90;64.40;;;;;;4974454;28;20567;-72
2022/06/26 09:35:57;;;;;;;5.50;5.00;;;29.80;64.20;;;;;;4974189;28;20721;-71
2022/06/26 09:38:25;;;;;;;1.90;1.07;;;29.70;63.90;;;;;;4974083;28;20595;-72
2022/06/26 09:40:59;;;;;;;1.50;0.70;;;29.50;64.20;;;;;;4973707;28;20568;-72
2022/06/26 09:43:30;;;;;;;2.87;1.10;;;29.40;64.30;;;;;;4974079;28;20623;-72
2022/06/26 09:45:58;;;;;;;1.60;0.70;;;29.20;64.90;;;;;;4974068;28;20661;-71
2022/06/26 09:48:24;;;;;;;1.50;0.70;;;29.10;65.20;;;;;;4956242;28;20656;-71
2022/06/26 09:50:51;;;;;;;2.83;0.60;;;28.90;65.50;;;;;;4973594;28;20745;-72
2022/06/26 09:53:18;;;;;;;4.60;0.60;;;28.80;65.60;;;;;;4940696;28;20579;-72
2022/06/26 09:55:49;;;;;;;1.80;0.80;;;28.60;65.70;;;;;;4973709;28;20705;-71
2022/06/26 09:58:16;;;;;;;4.07;0.70;;;28.50;66.20;;;;;;4973757;28;20706;-71
2022/06/26 10:00:42;;;;;;;1.50;0.70;;;28.40;66.70;;;;;;4956257;28;20575;-72
2022/06/26 10:08:43;;;;;;;1.60;0.73;;;28.00;67.30;;;;;;4973613;28;20606;-71
2022/06/26 10:11:10;;;;;;;1.97;0.73;;;28.00;68.90;;;;;;4973216;28;20939;-73
2022/06/26 10:13:39;;;;;;;2.93;0.90;;;28.00;69.00;;;;;;4956036;28;20598;-72
2022/06/26 10:16:26;;;;;;;1.60;0.70;;;28.00;69.60;;;;;;4956165;28;20618;-72
2022/06/26 10:19:11;;;;;;;2.50;0.70;;;28.00;69.70;;;;;;4973499;28;20597;-71
2022/06/26 10:21:38;;;;;;;2.90;0.60;;;27.90;69.00;;;;;;4973262;28;20559;-72
2022/06/26 10:24:05;;;;;;;2.17;0.70;;;28.00;70.60;;;;;;4956115;28;20567;-72
2022/06/26 10:26:32;;;;;;;2.13;1.03;;;28.00;70.00;;;;;;4973322;28;20582;-72
2022/06/26 10:29:06;;;;;;;2.17;0.60;;;28.00;69.80;;;;;;4972931;28;20647;-71
2022/06/26 10:31:44;;;;;;;1.70;0.63;;;27.90;70.00;;;;;;4955921;28;20579;-72
2022/06/26 10:34:21;;;;;;;1.37;0.80;;;28.00;70.60;;;;;;4955823;28;20933;-72
2022/06/26 10:37:34;;;;;;;2.23;0.70;;;28.10;71.00;;;;;;4940120;28;20625;-72
2022/06/26 10:40:14;;;;;;;1.47;0.60;;;28.10;70.50;;;;;;4944029;28;20639;-71
2022/06/26 10:42:53;;;;;;;1.30;0.60;;;28.10;70.40;;;;;;4939764;28;21204;-72
2022/06/26 10:45:23;;;;;;;1.60;0.60;;;28.10;70.80;;;;;;4973084;28;20943;-72
2022/06/26 10:47:52;;;;;;;1.50;0.77;;;28.10;71.30;;;;;;4972942;28;20606;-72
2022/06/26 10:50:35;;;;;;;2.47;0.77;;;28.10;72.10;;;;;;4972889;28;20966;-71
2022/06/26 10:53:14;;;;;;;2.17;0.83;;;28.10;71.00;;;;;;4973019;28;20579;-71
2022/06/26 10:55:43;;;;;;;2.13;0.70;;;28.10;71.20;;;;;;4972888;28;20629;-71
2022/06/26 10:58:12;;;;;;;3.60;0.90;;;28.10;72.50;;;;;;4955526;28;20610;-72
2022/06/26 11:00:38;;;;;;;1.70;0.77;;;28.00;71.20;;;;;;4954663;28;20583;-71
2022/06/26 11:03:13;;;;;;;1.40;0.67;;;28.00;71.20;;;;;;4972806;28;21123;-72
2022/06/26 11:05:54;;;;;;;2.17;0.70;;;27.90;71.80;;;;;;4955493;28;20233;-72
2022/06/26 11:08:32;;;;;;;1.70;0.70;;;27.90;71.50;;;;;;4955580;28;21007;-71
2022/06/26 11:11:01;;;;;;;1.47;0.50;;;27.90;71.80;;;;;;4972360;28;20571;-72
2022/06/26 11:13:26;;;;;;;1.30;0.77;;;27.80;72.10;;;;;;4972924;28;20563;-71
2022/06/26 11:15:52;;;;;;;1.50;0.70;;;27.80;72.10;;;;;;4955485;28;20629;-71
2022/06/26 11:18:18;;;;;;;1.50;0.60;;;27.80;72.50;;;;;;4972708;28;20195;-71
2022/06/26 11:20:50;;;;;;;1.30;0.60;;;27.80;72.80;;;;;;4972354;28;20563;-71
2022/06/26 11:23:31;;;;;;;2.57;0.70;;;27.80;72.90;;;;;;4973029;28;20175;-71
2022/06/26 11:26:08;;;;;;;1.80;0.70;;;27.80;73.20;;;;;;4955518;28;20570;-71
2022/06/26 11:28:40;;;;;;;2.20;0.97;;;27.80;73.20;;;;;;4972340;28;20669;-71
2022/06/26 11:31:08;;;;;;;1.70;0.77;;;27.80;73.10;;;;;;4972061;28;20656;-71
2022/06/26 11:33:36;;;;;;;1.83;0.90;;;27.70;72.80;;;;;;4972520;28;21260;-71
2022/06/26 11:36:05;;;;;;;1.50;0.87;;;27.70;72.50;;;;;;4955425;28;21150;-71
2022/06/26 11:38:32;;;;;;;1.30;0.60;;;27.60;72.00;;;;;;4972394;28;20601;-71
2022/06/26 11:41:03;;;;;;;2.00;0.80;;;27.50;71.80;;;;;;4972167;28;20567;-72
2022/06/26 11:43:29;;;;;;;4.73;1.30;;;27.40;72.20;;;;;;4939406;28;20598;-72
2022/06/26 11:46:00;;;;;;;2.00;1.23;;;27.30;72.30;;;;;;4939421;28;20583;-72
2022/06/26 11:48:27;;;;;;;1.70;1.20;;;27.20;72.40;;;;;;4939512;28;20697;-72
2022/06/26 11:50:55;;;;;;;1.97;0.70;;;27.10;72.30;;;;;;4972403;28;20602;-71
2022/06/26 11:53:28;;;;;;;1.87;0.70;;;27.00;72.30;;;;;;4972645;28;20629;-72
2022/06/26 11:55:56;;;;;;;2.10;0.70;;;26.90;72.80;;;;;;4973392;28;20638;-72
2022/06/26 11:58:28;;;;;;;1.40;0.70;;;26.80;73.30;;;;;;4955195;28;20598;-71
2022/06/26 12:01:12;;;;;;;4.23;0.90;;;26.70;72.40;;;;;;4972060;28;20598;-71
2022/06/26 12:03:47;;;;;;;1.70;0.70;;;26.50;72.50;;;;;;4954699;28;20591;-72
2022/06/26 12:06:29;;;;;;;3.57;2.03;;;26.40;73.30;;;;;;4972075;28;20588;-72
2022/06/26 12:08:56;;;;;;;1.60;0.80;;;26.20;73.60;;;;;;4972200;28;20624;-72
2022/06/26 12:11:26;;;;;;;3.07;0.80;;;26.10;74.20;;;;;;4972103;28;20570;-71
2022/06/26 12:13:53;;;;;;;1.60;1.00;;;26.00;74.90;;;;;;4958813;28;21019;-71
2022/06/26 12:16:19;;;;;;;1.97;0.67;;;25.80;74.60;;;;;;4975761;28;20611;-71
2022/06/26 12:18:47;;;;;;;1.80;0.70;;;25.60;75.10;;;;;;4975448;28;20619;-71
2022/06/26 12:21:18;;;;;;;1.80;0.80;;;25.50;76.20;;;;;;4956772;28;20176;-71
2022/06/26 12:23:46;;;;;;;9.47;1.10;;;25.30;77.00;;;;;;4956350;29;20571;-72
2022/06/26 12:26:16;;;;;;;2.40;0.80;;;25.20;77.50;;;;;;4956405;29;20573;-72
2022/06/26 12:28:50;;;;;;;2.37;0.77;;;25.10;78.10;;;;;;4938969;29;20626;-71
2022/06/26 12:31:17;;;;;;;3.07;0.70;;;25.00;79.00;;;;;;4954765;29;20611;-72
2022/06/26 12:33:43;;;;;;;2.37;0.70;;;24.90;80.10;;;;;;4956139;29;20587;-72
2022/06/26 12:36:09;;;;;;;2.23;0.90;;;24.90;80.70;;;;;;4955915;29;20620;-72
2022/06/26 12:38:36;;;;;;;2.70;0.70;;;24.70;81.50;;;;;;4956320;29;20702;-74
2022/06/26 12:41:04;;;;;;;2.53;0.90;;;24.70;83.00;;;;;;4955027;29;20566;-74
2022/06/26 12:43:30;;;;;;;1.40;0.80;;;24.50;84.10;;;;;;4955745;29;20572;-74
2022/06/26 12:45:56;;;;;;;1.60;0.70;;;24.50;85.30;;;;;;4955811;29;20922;-74
2022/06/26 12:48:22;;;;;;;3.07;0.80;;;24.40;86.60;;;;;;4955510;29;20603;-74
2022/06/26 12:50:48;;;;;;;3.00;1.10;;;24.30;87.90;;;;;;4954646;29;20631;-74
2022/06/26 12:53:14;;;;;;;1.60;1.00;;;24.20;88.70;;;;;;4955574;29;20925;-74
2022/06/26 12:55:40;;;;;;;1.97;1.00;;;24.10;89.50;;;;;;4955492;29;20196;-73
2022/06/26 12:58:06;;;;;;;1.70;0.77;;;24.10;90.10;;;;;;4955444;29;20596;-74
2022/06/26 13:00:32;;;;;;;1.50;0.80;;;24.00;90.60;;;;;;4954672;29;20679;-74
2022/06/26 13:02:58;;;;;;;2.40;0.90;;;24.00;91.00;;;;;;4958932;29;20600;-74
2022/06/26 13:05:23;;;;;;;3.60;0.90;;;24.00;91.70;;;;;;4955401;29;21238;-74
2022/06/26 13:07:49;;;;;;;3.30;1.00;;;24.10;92.10;;;;;;4955363;29;20169;-74